Terminal Aerodrome Forecast
Issued by NWS

Home | Current Version | Previous Version | Text Only | Print | Product List | Glossary On
Versions: 1 2 3 4 5 6 7 8 9 10 11 12 13 14 15 16 17 18 19 20 21 22 23 24 25 26 27 28 29 30 31 32 33 34 35 36 37 38 39 40 41
000
FTUS43 KGLD 261732
TAFMCK
TAF
KMCK 261732Z 2618/2718 11010KT P6SM FEW070 SCT250
     FM270100 13011KT P6SM VCTS SCT060CB BKN200
     FM270600 13009KT P6SM OVC100
     FM271400 16010KT P6SM SCT090=

USA.gov is the U.S. government's official web portal to all federal, state and local government web resources and services.